TimeEEST,TemperatureF,Dew PointF,Humidity,Sea Level PressureIn,VisibilityMPH,Wind Direction,Wind SpeedMPH,Gust SpeedMPH,PrecipitationIn,Events,Conditions,WindDirDegrees,DateUTC
12:50 AM,44.6,42.8,93,30.04,6.2,SSE,6.9,-,N/A,,Mostly Cloudy,150,2012-10-09 21:50:00
1:50 AM,44.6,42.8,93,30.04,6.2,ESE,5.8,-,N/A,,Mostly Cloudy,120,2012-10-09 22:50:00
2:50 AM,42.8,41.0,93,30.04,6.2,SE,4.6,-,N/A,,Mostly Cloudy,140,2012-10-09 23:50:00
3:00 AM,50,45,77,,9,Calm,Calm,,,,Partly Cloudy,,2012-10-10 00:00:00
4:50 AM,39.2,39.2,100,30.04,0.2,SE,6.9,-,N/A,Fog,Fog,130,2012-10-10 01:50:00
5:50 AM,39.2,37.4,93,30.04,0.4,SE,5.8,-,N/A,Fog,Fog,140,2012-10-10 02:50:00
6:50 AM,39.2,37.4,93,30.04,0.4,SE,4.6,-,N/A,Fog,Fog,130,2012-10-10 03:50:00
7:50 AM,44.6,42.8,93,30.04,0.6,SE,4.6,-,N/A,,Scattered Clouds,130,2012-10-10 04:50:00
8:50 AM,44.6,44.6,100,30.06,0.2,East,6.9,-,N/A,Fog,Fog,100,2012-10-10 05:50:00
9:00 AM,48,46,90,,2,Calm,Calm,,,,Mist,,2012-10-10 06:00:00
9:50 AM,48.2,46.4,93,30.06,6.2,SSE,9.2,-,N/A,,Mostly Cloudy,160,2012-10-10 06:50:00
10:50 AM,53.6,44.6,72,30.06,6.2,South,8.1,-,N/A,,Scattered Clouds,170,2012-10-10 07:50:00
11:50 AM,55.4,42.8,63,30.06,6.2,South,6.9,-,N/A,,Scattered Clouds,190,2012-10-10 08:50:00
12:50 PM,57.2,42.8,59,30.04,6.2,SSE,9.2,-,N/A,,Scattered Clouds,150,2012-10-10 09:50:00
1:50 PM,57.2,42.8,59,30.04,6.2,SSE,9.2,-,N/A,,Mostly Cloudy,160,2012-10-10 10:50:00
2:50 PM,59.0,42.8,55,30.01,6.2,ESE,9.2,-,N/A,,Mostly Cloudy,120,2012-10-10 11:50:00
3:00 PM,64,42,33,,9,East,2.3,,,,Mostly Cloudy,80,2012-10-10 12:00:00
3:50 PM,53.6,46.4,77,30.04,6.2,SSE,9.2,-,N/A,Rain,Light Rain Showers,150,2012-10-10 12:50:00
4:50 PM,53.6,44.6,72,30.01,6.2,Variable,2.3,-,N/A,,Mostly Cloudy,0,2012-10-10 13:50:00
5:50 PM,51.8,44.6,76,30.01,6.2,SE,10.4,-,N/A,,Mostly Cloudy,140,2012-10-10 14:50:00
6:50 PM,48.2,42.8,82,30.04,6.2,SE,4.6,-,N/A,,Mostly Cloudy,140,2012-10-10 15:50:00
7:50 PM,50.0,44.6,82,30.04,6.2,ESE,11.5,-,N/A,,Mostly Cloudy,120,2012-10-10 16:50:00
8:50 PM,50.0,44.6,82,30.04,6.2,SE,11.5,-,N/A,,Mostly Cloudy,130,2012-10-10 17:50:00
9:00 PM,54,47,71,,9,NNE,2.3,,,,Partly Cloudy,20,2012-10-10 18:00:00
9:50 PM,50.0,44.6,82,30.04,6.2,SE,10.4,-,N/A,,Mostly Cloudy,140,2012-10-10 18:50:00
10:50 PM,50.0,44.6,82,30.04,6.2,SE,11.5,-,N/A,,Mostly Cloudy,140,2012-10-10 19:50:00
11:50 PM,50.0,44.6,82,30.04,6.2,SE,10.4,-,N/A,,Mostly Cloudy,130,2012-10-10 20:50:00